sensor_id;sensor_type;location;lat;lon;timestamp;temperature;humidity
18225;DHT22;9237;48.590;8.854;2024-01-25T00:02:18;8.90;99.90
18225;DHT22;9237;48.590;8.854;2024-01-25T00:04:45;9.00;99.90
18225;DHT22;9237;48.590;8.854;2024-01-25T00:07:13;8.80;99.90
18225;DHT22;9237;48.590;8.854;2024-01-25T00:09:40;8.80;99.90
18225;DHT22;9237;48.590;8.854;2024-01-25T00:12:06;8.70;99.90
18225;DHT22;9237;48.590;8.854;2024-01-25T00:14:33;8.60;99.90
18225;DHT22;9237;48.590;8.854;2024-01-25T00:17:00;8.80;99.90
18225;DHT22;9237;48.590;8.854;2024-01-25T00:19:27;8.60;99.90
18225;DHT22;9237;48.590;8.854;2024-01-25T00:21:53;8.60;99.90
18225;DHT22;9237;48.590;8.854;2024-01-25T00:24:21;8.60;99.90
18225;DHT22;9237;48.590;8.854;2024-01-25T00:26:48;8.70;99.90
18225;DHT22;9237;48.590;8.854;2024-01-25T00:29:15;8.90;99.90
18225;DHT22;9237;48.590;8.854;2024-01-25T00:31:42;8.70;99.90
18225;DHT22;9237;48.590;8.854;2024-01-25T00:34:09;8.80;99.90
18225;DHT22;9237;48.590;8.854;2024-01-25T00:36:36;9.00;99.90
18225;DHT22;9237;48.590;8.854;2024-01-25T00:39:04;8.90;99.90
18225;DHT22;9237;48.590;8.854;2024-01-25T00:41:33;8.80;99.90
18225;DHT22;9237;48.590;8.854;2024-01-25T00:44:00;8.90;99.90
18225;DHT22;9237;48.590;8.854;2024-01-25T00:46:27;8.90;99.90
18225;DHT22;9237;48.590;8.854;2024-01-25T00:48:54;8.90;99.90
18225;DHT22;9237;48.590;8.854;2024-01-25T00:51:22;8.90;99.90
18225;DHT22;9237;48.590;8.854;2024-01-25T00:53:49;9.00;99.90
18225;DHT22;9237;48.590;8.854;2024-01-25T00:56:17;9.00;99.90
18225;DHT22;9237;48.590;8.854;2024-01-25T00:58:45;9.00;99.90
18225;DHT22;9237;48.590;8.854;2024-01-25T01:01:13;9.00;99.90
18225;DHT22;9237;48.590;8.854;2024-01-25T01:03:40;9.00;99.90
18225;DHT22;9237;48.590;8.854;2024-01-25T01:06:08;8.90;99.90
18225;DHT22;9237;48.590;8.854;2024-01-25T01:08:36;8.80;99.90
18225;DHT22;9237;48.590;8.854;2024-01-25T01:11:03;8.70;99.90
18225;DHT22;9237;48.590;8.854;2024-01-25T01:13:30;8.70;99.90
18225;DHT22;9237;48.590;8.854;2024-01-25T01:15:58;8.70;99.90
18225;DHT22;9237;48.590;8.854;2024-01-25T01:18:25;8.60;99.90
18225;DHT22;9237;48.590;8.854;2024-01-25T01:20:52;8.60;99.90
18225;DHT22;9237;48.590;8.854;2024-01-25T01:23:18;8.50;99.90
18225;DHT22;9237;48.590;8.854;2024-01-25T01:25:45;8.50;99.90
18225;DHT22;9237;48.590;8.854;2024-01-25T01:28:12;8.50;99.90
18225;DHT22;9237;48.590;8.854;2024-01-25T01:30:39;8.40;99.90
18225;DHT22;9237;48.590;8.854;2024-01-25T01:33:08;8.40;99.90
18225;DHT22;9237;48.590;8.854;2024-01-25T01:35:35;8.30;99.90
18225;DHT22;9237;48.590;8.854;2024-01-25T01:38:02;8.30;99.90
18225;DHT22;9237;48.590;8.854;2024-01-25T01:40:29;8.20;99.90
18225;DHT22;9237;48.590;8.854;2024-01-25T01:42:59;8.10;99.90
18225;DHT22;9237;48.590;8.854;2024-01-25T01:45:26;8.00;99.90
18225;DHT22;9237;48.590;8.854;2024-01-25T01:47:53;8.00;99.90
18225;DHT22;9237;48.590;8.854;2024-01-25T01:50:22;7.90;99.90
18225;DHT22;9237;48.590;8.854;2024-01-25T01:52:49;7.90;99.90
18225;DHT22;9237;48.590;8.854;2024-01-25T01:55:16;7.80;99.90
18225;DHT22;9237;48.590;8.854;2024-01-25T01:57:44;7.90;99.90
18225;DHT22;9237;48.590;8.854;2024-01-25T02:00:12;7.90;99.90
18225;DHT22;9237;48.590;8.854;2024-01-25T02:02:41;8.00;99.90
18225;DHT22;9237;48.590;8.854;2024-01-25T02:05:08;8.00;99.90
18225;DHT22;9237;48.590;8.854;2024-01-25T02:07:37;8.10;99.90
18225;DHT22;9237;48.590;8.854;2024-01-25T02:10:06;8.00;99.90
18225;DHT22;9237;48.590;8.854;2024-01-25T02:12:33;8.10;99.90
18225;DHT22;9237;48.590;8.854;2024-01-25T02:15:00;8.10;99.90
18225;DHT22;9237;48.590;8.854;2024-01-25T02:17:27;8.20;99.90
18225;DHT22;9237;48.590;8.854;2024-01-25T02:19:53;8.20;99.90
18225;DHT22;9237;48.590;8.854;2024-01-25T02:22:22;8.20;99.90
18225;DHT22;9237;48.590;8.854;2024-01-25T02:24:48;8.30;99.90
18225;DHT22;9237;48.590;8.854;2024-01-25T02:27:15;8.20;99.90
18225;DHT22;9237;48.590;8.854;2024-01-25T02:29:42;8.20;99.90
18225;DHT22;9237;48.590;8.854;2024-01-25T02:32:09;8.20;99.90
18225;DHT22;9237;48.590;8.854;2024-01-25T02:34:35;8.30;99.90
18225;DHT22;9237;48.590;8.854;2024-01-25T02:37:02;8.30;99.90
18225;DHT22;9237;48.590;8.854;2024-01-25T02:39:31;8.40;99.90
18225;DHT22;9237;48.590;8.854;2024-01-25T02:41:57;8.60;99.90
18225;DHT22;9237;48.590;8.854;2024-01-25T02:44:24;8.50;99.90
18225;DHT22;9237;48.590;8.854;2024-01-25T02:46:51;8.50;99.90
18225;DHT22;9237;48.590;8.854;2024-01-25T02:49:18;8.60;99.90
18225;DHT22;9237;48.590;8.854;2024-01-25T02:51:44;8.50;99.90
18225;DHT22;9237;48.590;8.854;2024-01-25T02:54:11;8.50;99.90
18225;DHT22;9237;48.590;8.854;2024-01-25T02:56:39;8.50;99.90
18225;DHT22;9237;48.590;8.854;2024-01-25T02:59:06;8.50;99.90
18225;DHT22;9237;48.590;8.854;2024-01-25T03:01:39;8.50;99.90
18225;DHT22;9237;48.590;8.854;2024-01-25T03:04:06;8.40;99.90
18225;DHT22;9237;48.590;8.854;2024-01-25T03:06:33;8.40;99.90
18225;DHT22;9237;48.590;8.854;2024-01-25T03:09:00;8.40;99.90
18225;DHT22;9237;48.590;8.854;2024-01-25T03:11:27;8.30;99.90
18225;DHT22;9237;48.590;8.854;2024-01-25T03:13:55;8.30;99.90
18225;DHT22;9237;48.590;8.854;2024-01-25T03:16:22;8.20;99.90
18225;DHT22;9237;48.590;8.854;2024-01-25T03:18:48;8.20;99.90
18225;DHT22;9237;48.590;8.854;2024-01-25T03:21:15;8.10;99.90
18225;DHT22;9237;48.590;8.854;2024-01-25T03:23:42;8.00;99.90
18225;DHT22;9237;48.590;8.854;2024-01-25T03:26:09;7.90;99.90
18225;DHT22;9237;48.590;8.854;2024-01-25T03:28:35;7.80;99.90
18225;DHT22;9237;48.590;8.854;2024-01-25T03:31:05;7.70;99.90
18225;DHT22;9237;48.590;8.854;2024-01-25T03:33:32;7.70;99.90
18225;DHT22;9237;48.590;8.854;2024-01-25T03:36:01;7.70;99.90
18225;DHT22;9237;48.590;8.854;2024-01-25T03:38:28;7.70;99.90
18225;DHT22;9237;48.590;8.854;2024-01-25T03:40:55;7.70;99.90
18225;DHT22;9237;48.590;8.854;2024-01-25T03:43:23;7.60;99.90
18225;DHT22;9237;48.590;8.854;2024-01-25T03:45:50;7.60;99.90
18225;DHT22;9237;48.590;8.854;2024-01-25T03:48:18;7.50;99.90
18225;DHT22;9237;48.590;8.854;2024-01-25T03:50:45;7.40;99.90
18225;DHT22;9237;48.590;8.854;2024-01-25T03:53:12;7.30;99.90
18225;DHT22;9237;48.590;8.854;2024-01-25T03:55:39;7.30;99.90
18225;DHT22;9237;48.590;8.854;2024-01-25T03:58:07;7.30;99.90
18225;DHT22;9237;48.590;8.854;2024-01-25T04:00:34;7.30;99.90
18225;DHT22;9237;48.590;8.854;2024-01-25T04:03:00;7.30;99.90
18225;DHT22;9237;48.590;8.854;2024-01-25T04:05:28;7.40;99.90
18225;DHT22;9237;48.590;8.854;2024-01-25T04:07:55;7.40;99.90
18225;DHT22;9237;48.590;8.854;2024-01-25T04:10:22;7.40;99.90
18225;DHT22;9237;48.590;8.854;2024-01-25T04:12:49;7.60;99.90
18225;DHT22;9237;48.590;8.854;2024-01-25T04:15:15;7.60;99.90
18225;DHT22;9237;48.590;8.854;2024-01-25T04:17:42;7.50;99.90
18225;DHT22;9237;48.590;8.854;2024-01-25T04:20:09;7.60;99.90
18225;DHT22;9237;48.590;8.854;2024-01-25T04:22:38;7.60;99.90
18225;DHT22;9237;48.590;8.854;2024-01-25T04:25:05;7.70;99.90
18225;DHT22;9237;48.590;8.854;2024-01-25T04:27:32;7.80;99.90
18225;DHT22;9237;48.590;8.854;2024-01-25T04:29:59;7.80;99.90
18225;DHT22;9237;48.590;8.854;2024-01-25T04:32:25;7.80;99.90
18225;DHT22;9237;48.590;8.854;2024-01-25T04:34:52;7.80;99.90
18225;DHT22;9237;48.590;8.854;2024-01-25T04:37:19;7.80;99.90
18225;DHT22;9237;48.590;8.854;2024-01-25T04:39:47;7.70;99.90
18225;DHT22;9237;48.590;8.854;2024-01-25T04:42:14;7.70;99.90
18225;DHT22;9237;48.590;8.854;2024-01-25T04:44:40;7.70;99.90
18225;DHT22;9237;48.590;8.854;2024-01-25T04:47:07;7.70;99.90
18225;DHT22;9237;48.590;8.854;2024-01-25T04:49:34;7.70;99.90
18225;DHT22;9237;48.590;8.854;2024-01-25T04:52:01;7.70;99.90
18225;DHT22;9237;48.590;8.854;2024-01-25T04:54:28;7.60;99.90
18225;DHT22;9237;48.590;8.854;2024-01-25T04:56:56;7.60;99.90
18225;DHT22;9237;48.590;8.854;2024-01-25T04:59:23;7.50;99.90
18225;DHT22;9237;48.590;8.854;2024-01-25T05:01:51;7.50;99.90
18225;DHT22;9237;48.590;8.854;2024-01-25T05:04:19;7.40;99.90
18225;DHT22;9237;48.590;8.854;2024-01-25T05:06:46;7.40;99.90
18225;DHT22;9237;48.590;8.854;2024-01-25T05:09:13;7.40;99.90
18225;DHT22;9237;48.590;8.854;2024-01-25T05:11:39;7.30;99.90
18225;DHT22;9237;48.590;8.854;2024-01-25T05:14:08;7.20;99.90
18225;DHT22;9237;48.590;8.854;2024-01-25T05:16:34;7.20;99.90
18225;DHT22;9237;48.590;8.854;2024-01-25T05:19:01;7.20;99.90
18225;DHT22;9237;48.590;8.854;2024-01-25T05:21:28;7.10;99.90
18225;DHT22;9237;48.590;8.854;2024-01-25T05:23:55;7.10;99.90
18225;DHT22;9237;48.590;8.854;2024-01-25T05:26:22;7.20;99.90
18225;DHT22;9237;48.590;8.854;2024-01-25T05:28:48;7.20;99.90
18225;DHT22;9237;48.590;8.854;2024-01-25T05:31:16;7.20;99.90
18225;DHT22;9237;48.590;8.854;2024-01-25T05:33:43;7.10;99.90
18225;DHT22;9237;48.590;8.854;2024-01-25T05:36:10;7.10;99.90
18225;DHT22;9237;48.590;8.854;2024-01-25T05:38:37;7.00;99.90
18225;DHT22;9237;48.590;8.854;2024-01-25T05:41:04;7.00;99.90
18225;DHT22;9237;48.590;8.854;2024-01-25T05:43:31;7.00;99.90
18225;DHT22;9237;48.590;8.854;2024-01-25T05:45:58;7.00;99.90
18225;DHT22;9237;48.590;8.854;2024-01-25T05:48:26;6.90;99.90
18225;DHT22;9237;48.590;8.854;2024-01-25T05:50:53;6.90;99.90
18225;DHT22;9237;48.590;8.854;2024-01-25T05:53:20;6.80;99.90
18225;DHT22;9237;48.590;8.854;2024-01-25T05:55:47;6.70;99.90
18225;DHT22;9237;48.590;8.854;2024-01-25T05:58:13;6.70;99.90
18225;DHT22;9237;48.590;8.854;2024-01-25T06:00:40;6.60;99.90
18225;DHT22;9237;48.590;8.854;2024-01-25T06:03:07;6.40;99.90
18225;DHT22;9237;48.590;8.854;2024-01-25T06:05:35;6.30;99.90
18225;DHT22;9237;48.590;8.854;2024-01-25T06:08:02;6.20;99.90
18225;DHT22;9237;48.590;8.854;2024-01-25T06:10:29;6.10;99.90
18225;DHT22;9237;48.590;8.854;2024-01-25T06:12:56;6.00;99.90
18225;DHT22;9237;48.590;8.854;2024-01-25T06:15:23;5.90;99.90
18225;DHT22;9237;48.590;8.854;2024-01-25T06:17:49;5.80;99.90
18225;DHT22;9237;48.590;8.854;2024-01-25T06:20:16;5.60;99.90
18225;DHT22;9237;48.590;8.854;2024-01-25T06:22:44;5.50;99.90
18225;DHT22;9237;48.590;8.854;2024-01-25T06:25:11;5.30;99.90
18225;DHT22;9237;48.590;8.854;2024-01-25T06:27:38;5.30;99.90
18225;DHT22;9237;48.590;8.854;2024-01-25T06:30:06;5.30;99.90
18225;DHT22;9237;48.590;8.854;2024-01-25T06:32:32;5.30;99.90
18225;DHT22;9237;48.590;8.854;2024-01-25T06:34:59;5.30;99.90
18225;DHT22;9237;48.590;8.854;2024-01-25T06:37:26;5.30;99.90
18225;DHT22;9237;48.590;8.854;2024-01-25T06:39:54;5.40;99.90
18225;DHT22;9237;48.590;8.854;2024-01-25T06:42:21;5.40;99.90
18225;DHT22;9237;48.590;8.854;2024-01-25T06:44:47;5.40;99.90
18225;DHT22;9237;48.590;8.854;2024-01-25T06:47:14;5.50;99.90
18225;DHT22;9237;48.590;8.854;2024-01-25T06:49:41;5.60;99.90
18225;DHT22;9237;48.590;8.854;2024-01-25T06:52:08;5.50;99.90
18225;DHT22;9237;48.590;8.854;2024-01-25T06:54:34;5.40;99.90
18225;DHT22;9237;48.590;8.854;2024-01-25T06:57:03;5.20;99.90
18225;DHT22;9237;48.590;8.854;2024-01-25T06:59:29;5.10;99.90
18225;DHT22;9237;48.590;8.854;2024-01-25T07:01:57;5.10;99.90
18225;DHT22;9237;48.590;8.854;2024-01-25T07:04:23;5.10;99.90
18225;DHT22;9237;48.590;8.854;2024-01-25T07:06:50;5.00;99.90
18225;DHT22;9237;48.590;8.854;2024-01-25T07:09:17;5.00;99.90
18225;DHT22;9237;48.590;8.854;2024-01-25T07:11:45;4.90;99.90
18225;DHT22;9237;48.590;8.854;2024-01-25T07:14:13;4.90;99.90
18225;DHT22;9237;48.590;8.854;2024-01-25T07:16:39;4.70;99.90
18225;DHT22;9237;48.590;8.854;2024-01-25T07:19:06;4.30;99.90
18225;DHT22;9237;48.590;8.854;2024-01-25T07:21:33;4.20;99.90
18225;DHT22;9237;48.590;8.854;2024-01-25T07:24:03;4.10;99.90
18225;DHT22;9237;48.590;8.854;2024-01-25T07:26:30;4.00;99.90
18225;DHT22;9237;48.590;8.854;2024-01-25T07:28:56;4.00;99.90
18225;DHT22;9237;48.590;8.854;2024-01-25T07:31:26;4.00;99.90
18225;DHT22;9237;48.590;8.854;2024-01-25T07:33:53;4.00;99.90
18225;DHT22;9237;48.590;8.854;2024-01-25T07:36:20;4.10;99.90
18225;DHT22;9237;48.590;8.854;2024-01-25T07:38:47;4.10;99.90
18225;DHT22;9237;48.590;8.854;2024-01-25T07:41:14;4.20;99.90
18225;DHT22;9237;48.590;8.854;2024-01-25T07:43:41;4.20;99.90
18225;DHT22;9237;48.590;8.854;2024-01-25T07:46:08;4.20;99.90
18225;DHT22;9237;48.590;8.854;2024-01-25T07:48:36;4.30;99.90
18225;DHT22;9237;48.590;8.854;2024-01-25T07:51:10;4.50;99.90
18225;DHT22;9237;48.590;8.854;2024-01-25T07:53:38;4.90;99.90
18225;DHT22;9237;48.590;8.854;2024-01-25T07:56:06;5.10;99.90
18225;DHT22;9237;48.590;8.854;2024-01-25T07:58:34;5.20;99.90
18225;DHT22;9237;48.590;8.854;2024-01-25T08:01:03;5.30;99.90
18225;DHT22;9237;48.590;8.854;2024-01-25T08:03:30;5.40;99.90
18225;DHT22;9237;48.590;8.854;2024-01-25T08:05:58;5.40;99.90
18225;DHT22;9237;48.590;8.854;2024-01-25T08:08:25;5.60;99.90
18225;DHT22;9237;48.590;8.854;2024-01-25T08:10:52;5.60;99.90
18225;DHT22;9237;48.590;8.854;2024-01-25T08:13:19;5.70;99.90
18225;DHT22;9237;48.590;8.854;2024-01-25T08:15:46;5.80;99.90
18225;DHT22;9237;48.590;8.854;2024-01-25T08:18:13;5.90;99.90
18225;DHT22;9237;48.590;8.854;2024-01-25T08:20:40;6.00;99.90
18225;DHT22;9237;48.590;8.854;2024-01-25T08:23:08;6.10;99.90
18225;DHT22;9237;48.590;8.854;2024-01-25T08:25:35;6.30;99.90
18225;DHT22;9237;48.590;8.854;2024-01-25T08:28:02;6.40;99.90
18225;DHT22;9237;48.590;8.854;2024-01-25T08:30:29;6.50;99.90
18225;DHT22;9237;48.590;8.854;2024-01-25T08:32:56;6.60;99.90
18225;DHT22;9237;48.590;8.854;2024-01-25T08:35:22;6.60;99.90
18225;DHT22;9237;48.590;8.854;2024-01-25T08:37:49;6.70;99.90
18225;DHT22;9237;48.590;8.854;2024-01-25T08:40:18;6.80;99.90
18225;DHT22;9237;48.590;8.854;2024-01-25T08:42:45;6.90;99.90
18225;DHT22;9237;48.590;8.854;2024-01-25T08:45:12;7.00;99.90
18225;DHT22;9237;48.590;8.854;2024-01-25T08:47:39;7.20;99.90
18225;DHT22;9237;48.590;8.854;2024-01-25T08:50:07;7.30;99.90
18225;DHT22;9237;48.590;8.854;2024-01-25T08:52:36;7.30;99.90
18225;DHT22;9237;48.590;8.854;2024-01-25T08:55:04;7.40;99.90
18225;DHT22;9237;48.590;8.854;2024-01-25T08:57:32;7.50;99.90
18225;DHT22;9237;48.590;8.854;2024-01-25T08:59:59;7.50;99.90
18225;DHT22;9237;48.590;8.854;2024-01-25T09:02:26;7.60;99.90
18225;DHT22;9237;48.590;8.854;2024-01-25T09:04:55;7.70;99.90
18225;DHT22;9237;48.590;8.854;2024-01-25T09:07:22;7.80;99.90
18225;DHT22;9237;48.590;8.854;2024-01-25T09:09:49;7.90;99.90
18225;DHT22;9237;48.590;8.854;2024-01-25T09:12:16;8.00;99.90
18225;DHT22;9237;48.590;8.854;2024-01-25T09:14:44;8.00;99.90
18225;DHT22;9237;48.590;8.854;2024-01-25T09:17:10;8.10;99.90
18225;DHT22;9237;48.590;8.854;2024-01-25T09:19:39;8.30;99.90
18225;DHT22;9237;48.590;8.854;2024-01-25T09:22:06;8.40;99.90
18225;DHT22;9237;48.590;8.854;2024-01-25T09:24:35;8.50;99.90
18225;DHT22;9237;48.590;8.854;2024-01-25T09:27:05;8.60;99.90
18225;DHT22;9237;48.590;8.854;2024-01-25T09:29:32;8.70;99.90
18225;DHT22;9237;48.590;8.854;2024-01-25T09:32:00;8.80;99.90
18225;DHT22;9237;48.590;8.854;2024-01-25T09:34:27;8.90;99.90
18225;DHT22;9237;48.590;8.854;2024-01-25T09:36:54;8.70;99.90
18225;DHT22;9237;48.590;8.854;2024-01-25T09:39:21;8.70;99.90
18225;DHT22;9237;48.590;8.854;2024-01-25T09:41:48;8.70;99.90
18225;DHT22;9237;48.590;8.854;2024-01-25T09:44:14;8.60;99.90
18225;DHT22;9237;48.590;8.854;2024-01-25T09:46:43;8.60;99.90
18225;DHT22;9237;48.590;8.854;2024-01-25T09:49:12;8.50;99.90
18225;DHT22;9237;48.590;8.854;2024-01-25T09:51:41;8.40;99.90
18225;DHT22;9237;48.590;8.854;2024-01-25T09:54:08;8.60;99.90
18225;DHT22;9237;48.590;8.854;2024-01-25T09:56:35;8.80;99.90
18225;DHT22;9237;48.590;8.854;2024-01-25T09:59:03;9.00;99.90
18225;DHT22;9237;48.590;8.854;2024-01-25T10:01:31;9.20;99.90
18225;DHT22;9237;48.590;8.854;2024-01-25T10:03:58;9.40;99.90
18225;DHT22;9237;48.590;8.854;2024-01-25T10:06:27;9.50;99.90
18225;DHT22;9237;48.590;8.854;2024-01-25T10:08:53;9.70;99.90
18225;DHT22;9237;48.590;8.854;2024-01-25T10:11:21;9.80;99.90
18225;DHT22;9237;48.590;8.854;2024-01-25T10:13:48;9.80;99.90
18225;DHT22;9237;48.590;8.854;2024-01-25T10:16:17;9.60;99.90
18225;DHT22;9237;48.590;8.854;2024-01-25T10:18:46;9.50;99.90
18225;DHT22;9237;48.590;8.854;2024-01-25T10:21:15;9.00;99.90
18225;DHT22;9237;48.590;8.854;2024-01-25T10:23:45;9.40;99.90
18225;DHT22;9237;48.590;8.854;2024-01-25T10:26:13;9.50;99.90
18225;DHT22;9237;48.590;8.854;2024-01-25T10:28:39;9.50;99.90
18225;DHT22;9237;48.590;8.854;2024-01-25T10:31:06;9.60;99.90
18225;DHT22;9237;48.590;8.854;2024-01-25T10:33:34;9.60;99.90
18225;DHT22;9237;48.590;8.854;2024-01-25T10:36:01;9.70;99.90
18225;DHT22;9237;48.590;8.854;2024-01-25T10:38:29;9.60;99.90
18225;DHT22;9237;48.590;8.854;2024-01-25T10:41:00;9.70;99.90
18225;DHT22;9237;48.590;8.854;2024-01-25T10:43:27;9.70;99.90
18225;DHT22;9237;48.590;8.854;2024-01-25T10:45:56;9.70;99.90
18225;DHT22;9237;48.590;8.854;2024-01-25T10:48:24;9.80;99.90
18225;DHT22;9237;48.590;8.854;2024-01-25T10:50:51;9.90;99.90
18225;DHT22;9237;48.590;8.854;2024-01-25T10:53:18;10.00;99.90
18225;DHT22;9237;48.590;8.854;2024-01-25T10:55:45;9.90;99.90
18225;DHT22;9237;48.590;8.854;2024-01-25T10:58:16;9.90;99.90
18225;DHT22;9237;48.590;8.854;2024-01-25T11:00:51;9.90;99.90
18225;DHT22;9237;48.590;8.854;2024-01-25T11:03:18;9.80;99.90
18225;DHT22;9237;48.590;8.854;2024-01-25T11:05:48;9.90;99.90
18225;DHT22;9237;48.590;8.854;2024-01-25T11:08:19;10.00;99.90
18225;DHT22;9237;48.590;8.854;2024-01-25T11:10:49;10.00;99.90
18225;DHT22;9237;48.590;8.854;2024-01-25T11:13:23;10.10;99.90
18225;DHT22;9237;48.590;8.854;2024-01-25T11:15:50;10.20;99.90
18225;DHT22;9237;48.590;8.854;2024-01-25T11:18:17;10.30;99.90
18225;DHT22;9237;48.590;8.854;2024-01-25T11:20:47;10.30;99.90
18225;DHT22;9237;48.590;8.854;2024-01-25T11:23:15;10.40;99.90
18225;DHT22;9237;48.590;8.854;2024-01-25T11:25:45;10.50;99.90
18225;DHT22;9237;48.590;8.854;2024-01-25T11:28:14;10.50;99.90
18225;DHT22;9237;48.590;8.854;2024-01-25T11:30:44;10.60;99.90
18225;DHT22;9237;48.590;8.854;2024-01-25T11:33:11;10.50;99.90
18225;DHT22;9237;48.590;8.854;2024-01-25T11:35:39;10.50;99.90
18225;DHT22;9237;48.590;8.854;2024-01-25T11:38:07;10.60;99.90
18225;DHT22;9237;48.590;8.854;2024-01-25T11:40:34;10.60;99.90
18225;DHT22;9237;48.590;8.854;2024-01-25T11:43:01;10.70;99.90
18225;DHT22;9237;48.590;8.854;2024-01-25T11:45:28;10.80;99.90
18225;DHT22;9237;48.590;8.854;2024-01-25T11:47:56;10.90;99.90
18225;DHT22;9237;48.590;8.854;2024-01-25T11:50:23;11.10;99.90
18225;DHT22;9237;48.590;8.854;2024-01-25T11:52:50;11.00;99.90
18225;DHT22;9237;48.590;8.854;2024-01-25T11:55:17;11.10;99.90
18225;DHT22;9237;48.590;8.854;2024-01-25T11:57:44;11.00;99.90
18225;DHT22;9237;48.590;8.854;2024-01-25T12:00:13;11.00;99.90
18225;DHT22;9237;48.590;8.854;2024-01-25T12:02:41;10.80;99.90
18225;DHT22;9237;48.590;8.854;2024-01-25T12:05:10;10.90;99.90
18225;DHT22;9237;48.590;8.854;2024-01-25T12:07:39;10.90;99.90
18225;DHT22;9237;48.590;8.854;2024-01-25T12:10:07;11.00;99.90
18225;DHT22;9237;48.590;8.854;2024-01-25T12:12:35;10.90;99.90
18225;DHT22;9237;48.590;8.854;2024-01-25T12:15:05;10.90;99.90
18225;DHT22;9237;48.590;8.854;2024-01-25T12:17:33;11.00;99.90
18225;DHT22;9237;48.590;8.854;2024-01-25T12:20:02;11.00;99.90
18225;DHT22;9237;48.590;8.854;2024-01-25T12:22:30;11.10;99.90
18225;DHT22;9237;48.590;8.854;2024-01-25T12:24:57;11.10;99.90
18225;DHT22;9237;48.590;8.854;2024-01-25T12:27:25;11.10;99.90
18225;DHT22;9237;48.590;8.854;2024-01-25T12:29:53;11.10;99.90
18225;DHT22;9237;48.590;8.854;2024-01-25T12:32:19;11.20;99.90
18225;DHT22;9237;48.590;8.854;2024-01-25T12:34:53;11.20;99.90
18225;DHT22;9237;48.590;8.854;2024-01-25T12:37:21;11.20;99.90
18225;DHT22;9237;48.590;8.854;2024-01-25T12:39:51;11.20;99.90
18225;DHT22;9237;48.590;8.854;2024-01-25T12:42:18;11.30;99.90
18225;DHT22;9237;48.590;8.854;2024-01-25T12:44:45;11.40;99.90
18225;DHT22;9237;48.590;8.854;2024-01-25T12:47:12;11.50;99.90
18225;DHT22;9237;48.590;8.854;2024-01-25T12:49:40;11.50;99.90
18225;DHT22;9237;48.590;8.854;2024-01-25T12:52:08;11.50;99.90
18225;DHT22;9237;48.590;8.854;2024-01-25T12:54:35;11.50;99.90
18225;DHT22;9237;48.590;8.854;2024-01-25T12:57:04;11.60;99.90
18225;DHT22;9237;48.590;8.854;2024-01-25T12:59:31;11.80;99.90
18225;DHT22;9237;48.590;8.854;2024-01-25T13:01:58;11.70;99.90
18225;DHT22;9237;48.590;8.854;2024-01-25T13:04:25;11.70;99.90
18225;DHT22;9237;48.590;8.854;2024-01-25T13:06:53;11.70;99.90
18225;DHT22;9237;48.590;8.854;2024-01-25T13:09:21;11.70;99.90
18225;DHT22;9237;48.590;8.854;2024-01-25T13:11:48;11.60;99.90
18225;DHT22;9237;48.590;8.854;2024-01-25T13:14:16;11.50;99.90
18225;DHT22;9237;48.590;8.854;2024-01-25T13:16:43;11.50;99.90
18225;DHT22;9237;48.590;8.854;2024-01-25T13:19:10;11.50;99.90
18225;DHT22;9237;48.590;8.854;2024-01-25T13:21:38;11.50;99.90
18225;DHT22;9237;48.590;8.854;2024-01-25T13:24:05;11.50;99.90
18225;DHT22;9237;48.590;8.854;2024-01-25T13:26:32;11.50;99.90
18225;DHT22;9237;48.590;8.854;2024-01-25T13:28:59;11.60;99.90
18225;DHT22;9237;48.590;8.854;2024-01-25T13:31:27;11.70;99.90
18225;DHT22;9237;48.590;8.854;2024-01-25T13:33:54;11.60;99.90
18225;DHT22;9237;48.590;8.854;2024-01-25T13:36:20;11.70;99.90
18225;DHT22;9237;48.590;8.854;2024-01-25T13:38:47;11.70;99.90
18225;DHT22;9237;48.590;8.854;2024-01-25T13:41:14;11.70;99.90
18225;DHT22;9237;48.590;8.854;2024-01-25T13:43:41;11.60;99.90
18225;DHT22;9237;48.590;8.854;2024-01-25T13:46:08;11.60;99.90
18225;DHT22;9237;48.590;8.854;2024-01-25T13:48:36;11.60;99.90
18225;DHT22;9237;48.590;8.854;2024-01-25T13:51:03;11.50;99.90
18225;DHT22;9237;48.590;8.854;2024-01-25T13:53:29;11.50;99.90
18225;DHT22;9237;48.590;8.854;2024-01-25T13:55:56;11.40;99.90
18225;DHT22;9237;48.590;8.854;2024-01-25T13:58:23;11.40;99.90
18225;DHT22;9237;48.590;8.854;2024-01-25T14:00:50;11.40;99.90
18225;DHT22;9237;48.590;8.854;2024-01-25T14:03:16;11.30;99.90
18225;DHT22;9237;48.590;8.854;2024-01-25T14:05:45;11.30;99.90
18225;DHT22;9237;48.590;8.854;2024-01-25T14:08:12;11.30;99.90
18225;DHT22;9237;48.590;8.854;2024-01-25T14:10:39;11.20;99.90
18225;DHT22;9237;48.590;8.854;2024-01-25T14:13:06;11.20;99.90
18225;DHT22;9237;48.590;8.854;2024-01-25T14:15:34;11.10;99.90
18225;DHT22;9237;48.590;8.854;2024-01-25T14:18:01;11.20;99.90
18225;DHT22;9237;48.590;8.854;2024-01-25T14:20:28;11.00;99.90
18225;DHT22;9237;48.590;8.854;2024-01-25T14:22:56;10.90;99.90
18225;DHT22;9237;48.590;8.854;2024-01-25T14:25:23;10.90;99.90
18225;DHT22;9237;48.590;8.854;2024-01-25T14:27:49;10.80;99.90
18225;DHT22;9237;48.590;8.854;2024-01-25T14:30:16;10.70;99.90
18225;DHT22;9237;48.590;8.854;2024-01-25T14:32:43;10.70;99.90
18225;DHT22;9237;48.590;8.854;2024-01-25T14:35:12;10.70;99.90
18225;DHT22;9237;48.590;8.854;2024-01-25T14:37:39;10.70;99.90
18225;DHT22;9237;48.590;8.854;2024-01-25T14:40:08;10.70;99.90
18225;DHT22;9237;48.590;8.854;2024-01-25T14:42:36;10.60;99.90
18225;DHT22;9237;48.590;8.854;2024-01-25T14:45:05;10.60;99.90
18225;DHT22;9237;48.590;8.854;2024-01-25T14:47:32;10.60;99.90
18225;DHT22;9237;48.590;8.854;2024-01-25T14:49:59;10.50;99.90
18225;DHT22;9237;48.590;8.854;2024-01-25T14:52:25;10.60;99.90
18225;DHT22;9237;48.590;8.854;2024-01-25T14:54:52;10.50;99.90
18225;DHT22;9237;48.590;8.854;2024-01-25T14:57:20;10.50;99.90
18225;DHT22;9237;48.590;8.854;2024-01-25T14:59:47;10.50;99.90
18225;DHT22;9237;48.590;8.854;2024-01-25T15:02:14;10.40;99.90
18225;DHT22;9237;48.590;8.854;2024-01-25T15:04:40;10.40;99.90
18225;DHT22;9237;48.590;8.854;2024-01-25T15:07:07;10.40;99.90
18225;DHT22;9237;48.590;8.854;2024-01-25T15:09:34;10.40;99.90
18225;DHT22;9237;48.590;8.854;2024-01-25T15:12:00;10.30;99.90
18225;DHT22;9237;48.590;8.854;2024-01-25T15:14:28;10.30;99.90
18225;DHT22;9237;48.590;8.854;2024-01-25T15:16:54;10.30;99.90
18225;DHT22;9237;48.590;8.854;2024-01-25T15:19:21;10.20;99.90
18225;DHT22;9237;48.590;8.854;2024-01-25T15:21:48;10.10;99.90
18225;DHT22;9237;48.590;8.854;2024-01-25T15:24:15;10.10;99.90
18225;DHT22;9237;48.590;8.854;2024-01-25T15:26:43;10.10;99.90
18225;DHT22;9237;48.590;8.854;2024-01-25T15:29:09;10.00;99.90
18225;DHT22;9237;48.590;8.854;2024-01-25T15:31:37;9.90;99.90
18225;DHT22;9237;48.590;8.854;2024-01-25T15:34:04;9.90;99.90
18225;DHT22;9237;48.590;8.854;2024-01-25T15:36:31;9.80;99.90
18225;DHT22;9237;48.590;8.854;2024-01-25T15:38:58;9.60;99.90
18225;DHT22;9237;48.590;8.854;2024-01-25T15:41:25;9.70;99.90
18225;DHT22;9237;48.590;8.854;2024-01-25T15:43:54;9.60;99.90
18225;DHT22;9237;48.590;8.854;2024-01-25T15:46:21;9.60;99.90
18225;DHT22;9237;48.590;8.854;2024-01-25T15:48:49;9.50;99.90
18225;DHT22;9237;48.590;8.854;2024-01-25T15:51:17;9.50;99.90
18225;DHT22;9237;48.590;8.854;2024-01-25T15:53:44;9.50;99.90
18225;DHT22;9237;48.590;8.854;2024-01-25T15:56:10;9.50;99.90
18225;DHT22;9237;48.590;8.854;2024-01-25T15:58:37;9.40;99.90